CDH4 weather

Cowichan District Hospital Heliport
Duncan, British Columbia, Canada

Public forecast

Using degrees Celsius for public forecast. Weather courtesy of forecast.io.

METAR (pilot weather report)

Closest report is Victoria International Airport, 14.4 nm (26.6 km) SE. Retrieved 2019/07/23 17:00 UTC (5 minutes ago):

CYYJ 231700Z 13007KT 30SM FEW060 BKN240 18/13 A3005 RMK SC1CI6 SC TR SLP178 DENSITY ALT 300FT

TAF (pilot weather forecast)

Closest forecast is Victoria International Airport, 14.4 nm (26.6 km) SE. Retrieved 2019/07/23 12:39 UTC (4 hours ago):

TAF CYYJ 231138Z 2312/2412 28007KT P6SM FEW080 SCT240 FM231400 27005KT P6SM SCT020 FM231800 09008KT P6SM FEW050 BECMG 2400/2402 26010KT FM240600 26010KT P6SM SCT050 BKN090 RMK NXT FCST BY 231800Z